createdAt,value
2017-10-28T00:00:28.558Z,6.00
2017-10-28T00:02:56.039Z,5.90
2017-10-28T00:05:23.526Z,5.90
2017-10-28T00:07:51.765Z,5.40
2017-10-28T00:10:19.669Z,5.40
2017-10-28T00:12:48.154Z,5.10
2017-10-28T00:15:16.393Z,5.20
2017-10-28T00:17:43.863Z,5.20
2017-10-28T00:20:11.353Z,5.10
2017-10-28T00:22:39.590Z,5.20
2017-10-28T00:25:07.062Z,5.10
2017-10-28T00:27:34.553Z,5.20
2017-10-28T00:43:21.546Z,4.90
2017-10-28T00:45:49.022Z,4.90
2017-10-28T00:48:16.889Z,4.90
2017-10-28T00:50:44.734Z,4.90
2017-10-28T00:53:12.970Z,5.10
2017-10-28T00:55:40.437Z,5.10
2017-10-28T00:58:07.929Z,5.30
2017-10-28T01:00:36.597Z,5.30
2017-10-28T01:03:05.381Z,5.50
2017-10-28T01:05:33.993Z,5.60
2017-10-28T01:08:01.461Z,5.50
2017-10-28T01:10:28.934Z,5.60
2017-10-28T01:12:56.428Z,5.60
2017-10-28T01:15:24.669Z,5.60
2017-10-28T01:17:52.138Z,5.60
2017-10-28T01:20:19.630Z,5.50
2017-10-28T01:22:48.153Z,5.30
2017-10-28T01:25:15.917Z,5.20
2017-10-28T01:27:43.400Z,5.20
2017-10-28T01:30:10.870Z,5.30
2017-10-28T01:32:38.340Z,5.30
2017-10-28T01:35:06.593Z,4.80
2017-10-28T01:37:34.066Z,4.70
2017-10-28T01:40:01.538Z,4.50
2017-10-28T01:42:29.785Z,4.30
2017-10-28T01:44:57.262Z,4.30
2017-10-28T01:47:25.501Z,4.70
2017-10-28T01:49:53.755Z,4.90
2017-10-28T01:52:21.528Z,4.90
2017-10-28T01:54:49.053Z,5.00
2017-10-28T01:57:16.534Z,5.20
2017-10-28T01:59:44.007Z,5.40
2017-10-28T02:02:11.494Z,5.60
2017-10-28T02:04:38.969Z,5.70
2017-10-28T02:07:07.226Z,6.00
2017-10-28T02:09:34.697Z,6.00
2017-10-28T02:12:02.933Z,6.20
2017-10-28T02:14:30.422Z,6.20
2017-10-28T02:16:57.893Z,6.00
2017-10-28T02:19:26.153Z,5.80
2017-10-28T02:21:53.618Z,5.70
2017-10-28T02:24:21.084Z,5.80
2017-10-28T02:26:49.333Z,5.80
2017-10-28T02:29:16.801Z,5.80
2017-10-28T02:31:44.294Z,5.90
2017-10-28T02:34:11.763Z,5.90
2017-10-28T02:36:39.274Z,5.90
2017-10-28T02:39:06.778Z,5.90
2017-10-28T02:41:34.546Z,5.90
2017-10-28T02:44:02.037Z,5.90
2017-10-28T02:46:29.512Z,5.80
2017-10-28T02:48:56.981Z,5.80
2017-10-28T02:51:25.225Z,5.40
2017-10-28T02:53:52.713Z,5.40
2017-10-28T02:56:20.995Z,5.30
2017-10-28T02:58:49.229Z,5.40
2017-10-28T03:01:16.697Z,5.30
2017-10-28T03:03:44.185Z,5.50
2017-10-28T03:06:12.421Z,5.60
2017-10-28T03:08:39.894Z,5.60
2017-10-28T03:11:07.387Z,5.60
2017-10-28T03:13:34.861Z,5.60
2017-10-28T03:16:02.337Z,5.60
2017-10-28T03:18:29.828Z,5.60
2017-10-28T03:20:57.298Z,5.50
2017-10-28T03:23:25.538Z,5.60
2017-10-28T03:25:53.029Z,5.60
2017-10-28T03:28:21.261Z,5.70
2017-10-28T03:30:48.726Z,5.70
2017-10-28T03:33:16.213Z,5.70
2017-10-28T03:35:43.701Z,5.70
2017-10-28T03:38:11.170Z,5.60
2017-10-28T03:40:38.665Z,5.60
2017-10-28T03:43:06.135Z,5.60
2017-10-28T03:45:33.601Z,5.60
2017-10-28T03:48:01.858Z,5.40
2017-10-28T03:50:29.329Z,5.30
2017-10-28T03:52:57.565Z,5.20
2017-10-28T03:55:25.058Z,5.10
2017-10-28T03:57:52.525Z,5.20
2017-10-28T04:00:20.762Z,5.20
2017-10-28T04:02:48.249Z,5.10
2017-10-28T04:05:15.721Z,5.10
2017-10-28T04:07:43.963Z,5.20
2017-10-28T04:10:11.458Z,5.20
2017-10-28T04:12:38.935Z,5.20
2017-10-28T04:15:06.405Z,5.20
2017-10-28T04:17:33.893Z,5.10
2017-10-28T04:20:01.361Z,5.00
2017-10-28T04:22:29.084Z,5.00
2017-10-28T04:24:56.841Z,5.00
2017-10-28T04:27:24.309Z,5.10
2017-10-28T04:29:51.774Z,5.10
2017-10-28T04:32:19.274Z,4.90
2017-10-28T04:34:47.514Z,4.90
2017-10-28T04:37:15.757Z,4.90
2017-10-28T04:39:43.258Z,4.90
2017-10-28T04:42:10.733Z,4.90
2017-10-28T04:44:38.974Z,4.80
2017-10-28T04:47:06.469Z,4.80
2017-10-28T04:49:34.705Z,5.00
2017-10-28T04:52:02.181Z,5.00
2017-10-28T04:54:29.834Z,5.00
2017-10-28T04:56:57.305Z,5.00
2017-10-28T04:59:24.773Z,5.10
2017-10-28T05:01:53.034Z,5.40
2017-10-28T05:04:20.510Z,5.40
2017-10-28T05:06:48.748Z,5.60
2017-10-28T05:09:16.244Z,5.60
2017-10-28T05:11:43.726Z,5.70
2017-10-28T05:14:11.201Z,5.80
2017-10-28T05:16:38.690Z,5.70
2017-10-28T05:19:06.162Z,5.70
2017-10-28T05:21:34.406Z,5.70
2017-10-28T05:24:01.905Z,5.70
2017-10-28T05:26:30.141Z,5.90
2017-10-28T05:28:57.613Z,5.90
2017-10-28T05:31:25.101Z,6.00
2017-10-28T05:33:53.342Z,6.00
2017-10-28T05:36:20.813Z,6.00
2017-10-28T05:38:48.305Z,5.90
2017-10-28T05:41:15.814Z,5.80
2017-10-28T05:43:43.295Z,5.90
2017-10-28T05:46:11.556Z,6.00
2017-10-28T05:48:39.279Z,6.00
2017-10-28T05:51:06.761Z,5.90
2017-10-28T05:53:34.253Z,5.70
2017-10-28T05:56:02.725Z,5.70
2017-10-28T05:58:30.969Z,5.70
2017-10-28T06:00:58.466Z,5.70
2017-10-28T06:03:26.706Z,5.90
2017-10-28T06:05:54.182Z,5.90
2017-10-28T06:08:21.678Z,6.00
2017-10-28T06:10:49.213Z,6.10
2017-10-28T06:13:17.469Z,6.10
2017-10-28T06:15:44.966Z,6.10
2017-10-28T06:18:12.511Z,6.10
2017-10-28T06:20:39.985Z,6.20
2017-10-28T06:23:07.481Z,6.20
2017-10-28T06:25:34.967Z,6.30
2017-10-28T06:28:03.205Z,6.50
2017-10-28T06:30:30.701Z,6.50
2017-10-28T06:32:58.943Z,6.70
2017-10-28T06:35:26.456Z,6.70
2017-10-28T06:37:53.945Z,6.80
2017-10-28T06:40:21.419Z,6.80
2017-10-28T06:42:49.157Z,6.90
2017-10-28T06:45:16.674Z,6.80
2017-10-28T06:47:44.910Z,6.70
2017-10-28T06:50:12.382Z,6.70
2017-10-28T06:52:39.883Z,6.90
2017-10-28T06:55:07.369Z,7.00
2017-10-28T06:57:34.842Z,7.10
2017-10-28T07:00:02.338Z,7.20
2017-10-28T07:02:30.578Z,7.10
2017-10-28T07:04:58.054Z,7.10
2017-10-28T07:07:25.553Z,7.20
2017-10-28T07:09:53.026Z,7.20
2017-10-28T07:12:20.497Z,7.10
2017-10-28T07:14:48.003Z,7.10
2017-10-28T07:17:16.251Z,7.30
2017-10-28T07:19:43.733Z,7.20
2017-10-28T07:22:11.987Z,7.20
2017-10-28T07:24:39.465Z,7.20
2017-10-28T07:27:07.702Z,7.50
2017-10-28T07:29:35.195Z,7.50
2017-10-28T07:32:03.442Z,7.60
2017-10-28T07:34:30.909Z,7.60
2017-10-28T07:36:58.402Z,7.70
2017-10-28T07:39:25.878Z,7.70
2017-10-28T07:41:53.360Z,7.80
2017-10-28T07:44:20.858Z,8.00
2017-10-28T07:46:49.094Z,8.10
2017-10-28T07:49:20.297Z,8.10
2017-10-28T07:51:48.112Z,8.30
2017-10-28T07:54:15.594Z,8.30
2017-10-28T07:56:43.060Z,8.20
2017-10-28T07:59:11.313Z,8.60
2017-10-28T08:01:38.786Z,8.60
2017-10-28T08:04:12.798Z,8.70
2017-10-28T08:06:41.041Z,8.70
2017-10-28T08:09:08.514Z,8.70
2017-10-28T08:11:36.005Z,8.80
2017-10-28T08:14:03.474Z,8.90
2017-10-28T08:16:30.941Z,9.00
2017-10-28T08:18:58.433Z,9.10
2017-10-28T08:21:25.925Z,9.10
2017-10-28T08:23:54.441Z,9.20
2017-10-28T08:26:21.929Z,9.20
2017-10-28T08:28:49.406Z,9.20
2017-10-28T08:31:16.878Z,9.20
2017-10-28T08:33:45.134Z,9.40
2017-10-28T08:36:12.602Z,9.40
2017-10-28T08:38:40.832Z,9.60
2017-10-28T08:41:08.322Z,9.60
2017-10-28T08:43:35.795Z,9.60
2017-10-28T08:46:04.026Z,9.60
2017-10-28T08:48:31.518Z,9.60
2017-10-28T08:50:59.006Z,9.80
2017-10-28T08:53:26.466Z,9.90
2017-10-28T08:55:53.956Z,9.90
2017-10-28T08:58:21.425Z,9.90
2017-10-28T09:00:48.926Z,9.90
2017-10-28T09:03:16.424Z,9.80
2017-10-28T09:05:43.899Z,9.90
2017-10-28T09:08:11.369Z,9.80
2017-10-28T09:10:38.861Z,9.80
2017-10-28T09:13:06.325Z,9.80
2017-10-28T09:15:33.793Z,9.70
2017-10-28T09:18:01.298Z,9.80
2017-10-28T09:20:28.769Z,9.80
2017-10-28T09:22:57.019Z,10.00
2017-10-28T09:25:24.530Z,10.00
2017-10-28T09:27:52.019Z,10.10
2017-10-28T09:30:19.507Z,10.10
2017-10-28T09:32:47.003Z,10.20
2017-10-28T09:35:14.474Z,10.20
2017-10-28T09:37:41.954Z,10.20
2017-10-28T09:40:09.450Z,10.30
2017-10-28T09:42:37.690Z,10.40
2017-10-28T09:45:05.165Z,10.40
2017-10-28T09:47:32.713Z,10.40
2017-10-28T09:50:00.197Z,10.50
2017-10-28T09:52:28.450Z,10.50
2017-10-28T09:54:55.951Z,10.50
2017-10-28T09:57:23.421Z,10.60
2017-10-28T09:59:50.898Z,10.60
2017-10-28T10:02:18.389Z,10.70
2017-10-28T10:04:45.862Z,10.70
2017-10-28T10:07:14.101Z,10.50
2017-10-28T10:09:41.594Z,10.50
2017-10-28T10:12:09.830Z,10.30
2017-10-28T10:14:37.301Z,10.20
2017-10-28T10:17:04.794Z,10.30
2017-10-28T10:19:32.266Z,10.30
2017-10-28T10:21:59.737Z,10.40
2017-10-28T10:24:27.229Z,10.50
2017-10-28T10:26:54.950Z,11.10
2017-10-28T10:29:22.421Z,11.50
2017-10-28T10:31:49.909Z,11.90
2017-10-28T10:34:17.629Z,12.20
2017-10-28T10:36:45.105Z,13.00
2017-10-28T10:39:13.365Z,14.10
2017-10-28T10:41:40.841Z,14.10
2017-10-28T10:44:08.310Z,13.80
2017-10-28T10:46:35.802Z,13.90
2017-10-28T10:49:04.042Z,13.20
2017-10-28T10:51:31.518Z,13.10
2017-10-28T10:53:59.016Z,12.60
2017-10-28T10:56:26.486Z,12.40
2017-10-28T10:58:53.957Z,12.00
2017-10-28T11:01:21.448Z,11.70
2017-10-28T11:03:49.974Z,11.50
2017-10-28T11:06:17.454Z,11.50
2017-10-28T11:08:46.017Z,11.20
2017-10-28T11:11:13.485Z,11.20
2017-10-28T11:13:41.725Z,10.90
2017-10-28T11:16:09.609Z,10.80
2017-10-28T11:18:37.076Z,11.00
2017-10-28T11:21:04.541Z,11.00
2017-10-28T11:23:32.058Z,11.00
2017-10-28T11:25:59.540Z,11.00
2017-10-28T11:28:27.009Z,11.00
2017-10-28T11:30:54.502Z,11.00
2017-10-28T11:33:21.985Z,10.90
2017-10-28T11:35:50.221Z,10.90
2017-10-28T11:38:17.710Z,10.80
2017-10-28T11:40:45.945Z,10.90
2017-10-28T11:43:13.417Z,10.90
2017-10-28T11:45:40.910Z,11.00
2017-10-28T11:48:08.425Z,11.10
2017-10-28T11:50:35.906Z,11.20
2017-10-28T11:53:04.165Z,10.80
2017-10-28T11:55:31.634Z,10.80
2017-10-28T11:57:59.105Z,10.60
2017-10-28T12:00:27.621Z,10.60
2017-10-28T12:02:55.129Z,10.60
2017-10-28T12:05:22.650Z,10.50
2017-10-28T12:07:50.146Z,10.60
2017-10-28T12:10:17.716Z,10.60
2017-10-28T12:12:45.992Z,10.60
2017-10-28T12:15:14.257Z,10.80
2017-10-28T12:17:41.730Z,10.70
2017-10-28T12:20:09.965Z,10.90
2017-10-28T12:22:37.559Z,10.90
2017-10-28T12:25:05.795Z,10.80
2017-10-28T12:27:33.266Z,10.70
2017-10-28T12:30:00.806Z,10.70
2017-10-28T12:32:29.082Z,10.70
2017-10-28T12:34:57.321Z,10.80
2017-10-28T12:37:24.814Z,10.70
2017-10-28T12:39:52.294Z,10.70
2017-10-28T12:42:19.773Z,10.70
2017-10-28T12:44:48.037Z,10.70
2017-10-28T12:47:15.514Z,10.70
2017-10-28T12:49:43.761Z,10.60
2017-10-28T12:52:11.253Z,10.60
2017-10-28T12:54:38.728Z,10.50
2017-10-28T12:57:06.211Z,10.50
2017-10-28T12:59:33.709Z,10.40
2017-10-28T13:02:01.946Z,10.40
2017-10-28T13:04:29.420Z,10.40
2017-10-28T13:06:56.909Z,10.50
2017-10-28T13:09:25.154Z,10.60
2017-10-28T13:11:52.633Z,10.60
2017-10-28T13:14:20.889Z,10.50
2017-10-28T13:16:48.360Z,10.50
2017-10-28T13:19:16.593Z,10.40
2017-10-28T13:21:44.086Z,10.40
2017-10-28T13:24:11.553Z,10.50
2017-10-28T13:26:39.830Z,10.50
2017-10-28T13:29:08.094Z,10.50
2017-10-28T13:31:35.579Z,10.50
2017-10-28T13:34:03.055Z,10.40
2017-10-28T13:36:30.554Z,10.40
2017-10-28T13:38:58.026Z,10.30
2017-10-28T13:41:26.262Z,10.20
2017-10-28T13:43:54.033Z,10.20
2017-10-28T13:46:21.502Z,10.20
2017-10-28T13:48:48.979Z,10.30
2017-10-28T13:51:17.242Z,10.30
2017-10-28T13:53:44.711Z,10.30
2017-10-28T13:56:12.948Z,10.30
2017-10-28T13:58:40.444Z,10.30
2017-10-28T14:01:07.916Z,10.30
2017-10-28T14:03:36.158Z,10.40
2017-10-28T14:06:03.655Z,10.30
2017-10-28T14:08:31.130Z,10.30
2017-10-28T14:10:58.606Z,10.30
2017-10-28T14:13:26.098Z,10.20
2017-10-28T14:15:53.639Z,10.20
2017-10-28T14:18:21.117Z,10.20
2017-10-28T14:20:48.610Z,10.20
2017-10-28T14:23:16.088Z,10.20
2017-10-28T14:25:43.562Z,10.20
2017-10-28T14:28:11.058Z,10.10
2017-10-28T14:30:39.293Z,10.10
2017-10-28T14:33:07.533Z,10.00
2017-10-28T14:35:35.027Z,10.00
2017-10-28T14:38:02.498Z,10.00
2017-10-28T14:40:29.974Z,10.10
2017-10-28T14:42:58.234Z,10.00
2017-10-28T14:45:25.705Z,10.00
2017-10-28T14:47:53.940Z,10.00
2017-10-28T14:50:21.429Z,10.00
2017-10-28T14:52:48.903Z,10.00
2017-10-28T14:55:17.150Z,10.00
2017-10-28T14:57:44.657Z,9.90
2017-10-28T15:00:12.130Z,10.00
2017-10-28T15:02:39.602Z,10.00
2017-10-28T15:05:07.093Z,10.00
2017-10-28T15:07:34.565Z,10.00
2017-10-28T15:10:02.806Z,9.90
2017-10-28T15:12:30.311Z,9.90
2017-10-28T15:14:57.780Z,9.90
2017-10-28T15:17:25.256Z,9.80
2017-10-28T15:19:52.744Z,9.80
2017-10-28T15:22:20.214Z,9.80
2017-10-28T15:24:47.681Z,9.80
2017-10-28T15:27:15.937Z,9.80
2017-10-28T15:29:43.406Z,9.80
2017-10-28T15:32:11.638Z,9.70
2017-10-28T15:34:39.131Z,9.70
2017-10-28T15:37:06.597Z,9.70
2017-10-28T15:39:34.906Z,9.70
2017-10-28T15:42:02.393Z,9.70
2017-10-28T15:44:29.865Z,9.70
2017-10-28T15:46:57.329Z,9.60
2017-10-28T15:49:24.821Z,9.60
2017-10-28T15:51:52.295Z,9.60
2017-10-28T15:54:19.770Z,9.60
2017-10-28T15:56:47.260Z,9.60
2017-10-28T15:59:15.514Z,9.40
2017-10-28T16:01:42.982Z,9.40
2017-10-28T16:04:10.469Z,9.40
2017-10-28T16:06:38.696Z,9.30
2017-10-28T16:09:06.165Z,9.30
2017-10-28T16:11:33.658Z,9.20
2017-10-28T16:14:01.945Z,9.10
2017-10-28T16:16:29.419Z,9.10
2017-10-28T16:18:56.914Z,9.10
2017-10-28T16:21:24.381Z,9.00
2017-10-28T16:23:51.855Z,9.00
2017-10-28T16:26:20.110Z,8.90
2017-10-28T16:28:47.610Z,8.90
2017-10-28T16:31:15.397Z,8.90
2017-10-28T16:33:42.893Z,8.80
2017-10-28T16:36:10.358Z,8.80
2017-10-28T16:38:37.827Z,8.70
2017-10-28T16:41:06.102Z,8.70
2017-10-28T16:43:34.337Z,8.70
2017-10-28T16:46:01.830Z,8.60
2017-10-28T16:48:30.085Z,8.60
2017-10-28T16:50:57.566Z,8.60
2017-10-28T16:53:25.814Z,8.60
2017-10-28T16:55:53.310Z,8.50
2017-10-28T16:58:21.551Z,8.60
2017-10-28T17:00:49.029Z,8.60
2017-10-28T17:03:17.289Z,8.60
2017-10-28T17:05:44.766Z,8.60
2017-10-28T17:08:13.001Z,8.70
2017-10-28T17:10:40.497Z,8.60
2017-10-28T17:13:08.738Z,8.70
2017-10-28T17:15:36.214Z,8.70
2017-10-28T17:18:03.707Z,8.70
2017-10-28T17:20:31.173Z,8.80
2017-10-28T17:22:58.641Z,8.80
2017-10-28T17:25:26.130Z,8.80
2017-10-28T17:27:53.602Z,8.80
2017-10-28T17:30:21.066Z,8.80
2017-10-28T17:32:48.556Z,8.80
2017-10-28T17:35:16.038Z,8.90
2017-10-28T17:37:43.507Z,8.90
2017-10-28T17:40:11.002Z,8.90
2017-10-28T17:42:39.241Z,8.90
2017-10-28T17:45:06.714Z,8.90
2017-10-28T17:47:34.205Z,8.90
2017-10-28T17:50:02.438Z,9.00
2017-10-28T17:52:29.906Z,8.90
2017-10-28T17:54:57.405Z,8.90
2017-10-28T17:57:24.875Z,9.00
2017-10-28T17:59:52.356Z,9.00
2017-10-28T18:02:20.614Z,9.00
2017-10-28T18:04:48.087Z,9.00
2017-10-28T18:07:15.553Z,9.00
2017-10-28T18:09:43.061Z,9.00
2017-10-28T18:12:10.845Z,9.00
2017-10-28T18:14:38.325Z,9.00
2017-10-28T18:17:05.818Z,9.10
2017-10-28T18:19:34.053Z,9.10
2017-10-28T18:22:01.530Z,9.10
2017-10-28T18:24:29.028Z,9.10
2017-10-28T18:26:56.817Z,9.10
2017-10-28T18:29:24.287Z,9.10
2017-10-28T18:31:51.777Z,9.10
2017-10-28T18:34:19.250Z,9.20
2017-10-28T18:36:47.485Z,9.20
2017-10-28T18:39:14.985Z,9.20
2017-10-28T18:41:43.219Z,9.20
2017-10-28T18:44:10.694Z,9.20
2017-10-28T18:46:38.182Z,9.20
2017-10-28T18:49:05.657Z,9.30
2017-10-28T18:51:33.126Z,9.30
2017-10-28T18:54:00.618Z,9.30
2017-10-28T18:56:28.086Z,9.30
2017-10-28T18:58:55.553Z,9.30
2017-10-28T19:01:23.814Z,9.30
2017-10-28T19:03:51.286Z,9.30
2017-10-28T19:06:19.521Z,9.30
2017-10-28T19:08:47.006Z,9.30
2017-10-28T19:11:14.473Z,9.30
2017-10-28T19:13:42.706Z,9.30
2017-10-28T19:16:10.194Z,9.30
2017-10-28T19:18:37.665Z,9.30
2017-10-28T19:21:06.189Z,9.30
2017-10-28T19:23:39.734Z,9.30
2017-10-28T19:26:10.910Z,9.30
2017-10-28T19:28:38.529Z,9.30
2017-10-28T19:31:10.446Z,9.30
2017-10-28T19:33:37.933Z,9.30
2017-10-28T19:36:05.413Z,9.30
2017-10-28T19:38:32.904Z,9.30
2017-10-28T19:41:00.393Z,9.30
2017-10-28T19:43:28.933Z,9.30
2017-10-28T19:45:58.192Z,9.30
2017-10-28T19:48:26.473Z,9.30
2017-10-28T19:50:53.955Z,9.30
2017-10-28T19:53:22.201Z,9.30
2017-10-28T19:55:49.690Z,9.30
2017-10-28T19:58:17.923Z,9.40
2017-10-28T20:00:45.402Z,9.40
2017-10-28T20:03:12.921Z,9.30
2017-10-28T20:05:40.421Z,9.30
2017-10-28T20:08:07.892Z,9.20
2017-10-28T20:10:36.962Z,9.00
2017-10-28T20:13:04.442Z,8.90
2017-10-28T20:15:32.809Z,8.80
2017-10-28T20:18:01.129Z,8.80
2017-10-28T20:20:28.722Z,8.70
2017-10-28T20:22:56.258Z,8.70
2017-10-28T20:25:24.693Z,8.60
2017-10-28T20:27:55.517Z,8.70
2017-10-28T20:30:22.989Z,8.70
2017-10-28T20:32:51.417Z,8.60
2017-10-28T20:35:19.586Z,8.60
2017-10-28T20:37:47.238Z,8.60
2017-10-28T20:40:15.483Z,8.60
2017-10-28T20:42:43.042Z,8.60
2017-10-28T20:45:11.418Z,8.70
2017-10-28T20:47:38.947Z,8.70
2017-10-28T20:50:06.522Z,8.70
2017-10-28T20:52:33.994Z,8.80
2017-10-28T20:55:03.086Z,8.80
2017-10-28T20:57:30.842Z,8.80
2017-10-28T20:59:59.234Z,8.70
2017-10-28T21:02:27.657Z,8.70
2017-10-28T21:04:55.546Z,8.60
2017-10-28T21:07:23.134Z,8.80
2017-10-28T21:09:51.745Z,8.80
2017-10-28T21:12:19.394Z,8.80
2017-10-28T21:14:47.090Z,8.80
2017-10-28T21:17:14.845Z,8.80
2017-10-28T21:19:42.553Z,8.90
2017-10-28T21:22:10.025Z,8.80
2017-10-28T21:24:39.316Z,8.90
2017-10-28T21:27:07.822Z,8.80
2017-10-28T21:29:35.314Z,8.80
2017-10-28T21:32:03.018Z,8.80
2017-10-28T21:34:30.577Z,8.80
2017-10-28T21:36:59.029Z,8.80
2017-10-28T21:39:26.692Z,8.80
2017-10-28T21:41:54.515Z,8.80
2017-10-28T21:44:22.109Z,8.80
2017-10-28T21:46:50.726Z,8.70
2017-10-28T21:49:19.064Z,8.80
2017-10-28T21:51:46.629Z,8.80
2017-10-28T21:54:14.121Z,8.80
2017-10-28T21:56:41.829Z,8.70
2017-10-28T21:59:09.738Z,8.80
2017-10-28T22:01:37.245Z,8.70
2017-10-28T22:04:04.855Z,8.70
2017-10-28T22:06:32.350Z,8.70
2017-10-28T22:08:59.845Z,8.70
2017-10-28T22:11:27.356Z,8.70
2017-10-28T22:13:54.861Z,8.70
2017-10-28T22:16:22.413Z,8.80
2017-10-28T22:18:49.882Z,8.80
2017-10-28T22:21:17.345Z,8.80
2017-10-28T22:23:44.842Z,8.80
2017-10-28T22:26:12.333Z,8.70
2017-10-28T22:28:39.813Z,8.70
2017-10-28T22:31:07.309Z,8.60
2017-10-28T22:33:35.546Z,8.70
2017-10-28T22:36:03.022Z,8.70
2017-10-28T22:38:30.515Z,8.80
2017-10-28T22:40:57.986Z,8.80
2017-10-28T22:43:25.453Z,8.80
2017-10-28T22:45:52.945Z,8.80
2017-10-28T22:48:20.412Z,8.80
2017-10-28T22:50:47.877Z,8.80
2017-10-28T22:53:15.493Z,8.90
2017-10-28T22:55:43.014Z,8.80
2017-10-28T22:58:11.249Z,8.90
2017-10-28T23:00:38.746Z,8.90
2017-10-28T23:03:06.289Z,8.90
2017-10-28T23:05:34.599Z,8.90
2017-10-28T23:08:02.095Z,8.90
2017-10-28T23:10:29.565Z,9.00
2017-10-28T23:12:57.033Z,8.90
2017-10-28T23:15:24.522Z,9.00
2017-10-28T23:17:51.989Z,9.00
2017-10-28T23:20:19.478Z,9.10
2017-10-28T23:22:46.970Z,9.00
2017-10-28T23:25:15.201Z,9.10
2017-10-28T23:27:43.437Z,9.00
2017-10-28T23:30:10.981Z,9.00
2017-10-28T23:32:39.213Z,9.00
2017-10-28T23:35:06.679Z,9.00
2017-10-28T23:37:34.164Z,9.10
2017-10-28T23:40:02.417Z,9.10
2017-10-28T23:42:29.883Z,9.10
2017-10-28T23:44:57.605Z,9.20
2017-10-28T23:47:25.072Z,9.20
2017-10-28T23:49:52.537Z,9.20
2017-10-28T23:52:20.025Z,9.10
2017-10-28T23:54:47.497Z,9.20
2017-10-28T23:57:15.741Z,9.10
2017-10-28T23:59:43.229Z,9.10
